Time;durP1;ratioP1;P1;durP2;ratioP2;P2;SDS_P1;SDS_P2;PMS_P1;PMS_P2;Temp;Humidity;BMP_temperature;BMP_pressure;BME280_temperature;BME280_humidity;BME280_pressure;Samples;Min_cycle;Max_cycle;Signal;HPM_P1;HPM_P2
2023/07/25 00:01:56;;;;;;;9.80;4.00;;;;;;;;;;110687;1260;22107;-74
2023/07/25 00:04:23;;;;;;;8.40;4.00;;;;;;;;;;110425;1277;21933;-74
2023/07/25 00:06:51;;;;;;;8.90;4.50;;;;;;;;;;110412;1278;22077;-74
2023/07/25 00:09:19;;;;;;;11.80;3.90;;;;;;;;;;110346;1278;22835;-74
2023/07/25 00:11:47;;;;;;;10.30;4.10;;;;;;;;;;110586;1259;22978;-74
2023/07/25 00:14:15;;;;;;;8.00;3.80;;;;;;;;;;110409;1278;22807;-74
2023/07/25 00:16:42;;;;;;;8.50;4.10;;;;;;;;;;110314;1278;22966;-75
2023/07/25 00:19:10;;;;;;;8.80;4.30;;;;;;;;;;110315;1277;22793;-74
2023/07/25 00:21:38;;;;;;;9.10;4.00;;;;;;;;;;110507;1256;22191;-74
2023/07/25 00:24:05;;;;;;;8.10;3.90;;;;;;;;;;110430;1277;22091;-74
2023/07/25 00:26:32;;;;;;;8.40;3.60;;;;;;;;;;110452;1278;23010;-75
2023/07/25 00:29:00;;;;;;;9.00;3.30;;;;;;;;;;110421;1278;22091;-74
2023/07/25 00:31:27;;;;;;;9.00;3.50;;;;;;;;;;110353;1261;22841;-74
2023/07/25 00:33:56;;;;;;;8.30;3.50;;;;;;;;;;110389;1278;22129;-74
2023/07/25 00:36:24;;;;;;;7.90;3.50;;;;;;;;;;110351;1278;22842;-74
2023/07/25 00:38:53;;;;;;;7.80;3.30;;;;;;;;;;110280;1273;22397;-74
2023/07/25 00:41:22;;;;;;;7.60;3.30;;;;;;;;;;110261;1256;22223;-74
2023/07/25 00:43:51;;;;;;;7.20;3.30;;;;;;;;;;110300;1278;22483;-74
2023/07/25 00:46:20;;;;;;;8.60;3.20;;;;;;;;;;110381;1278;22124;-74
2023/07/25 00:48:49;;;;;;;6.20;3.00;;;;;;;;;;110399;1278;22060;-75
2023/07/25 00:51:19;;;;;;;6.50;3.00;;;;;;;;;;110350;1257;22208;-74
2023/07/25 00:53:47;;;;;;;8.60;3.50;;;;;;;;;;110352;1278;22635;-74
2023/07/25 00:56:16;;;;;;;7.80;3.40;;;;;;;;;;110359;1278;22595;-74
2023/07/25 00:58:47;;;;;;;7.20;3.20;;;;;;;;;;110354;1278;22850;-74
2023/07/25 01:01:15;;;;;;;8.30;3.50;;;;;;;;;;110275;1278;22074;-75
2023/07/25 01:03:44;;;;;;;6.60;3.10;;;;;;;;;;110387;1260;22573;-74
2023/07/25 01:06:13;;;;;;;7.10;3.20;;;;;;;;;;110373;1278;22119;-74
2023/07/25 01:08:52;;;;;;;7.50;3.50;;;;;;;;;;110299;1261;22773;-74
2023/07/25 01:11:22;;;;;;;8.30;3.30;;;;;;;;;;110360;1278;22105;-74
2023/07/25 01:13:52;;;;;;;7.20;3.10;;;;;;;;;;110732;1256;22509;-74
2023/07/25 01:16:24;;;;;;;7.10;2.80;;;;;;;;;;110294;1278;22756;-74
2023/07/25 01:18:55;;;;;;;9.60;3.30;;;;;;;;;;110209;1278;22113;-75
2023/07/25 01:21:24;;;;;;;6.60;3.10;;;;;;;;;;110364;1278;22104;-74
2023/07/25 01:23:53;;;;;;;8.60;3.50;;;;;;;;;;110486;1260;22102;-75
2023/07/25 01:26:23;;;;;;;8.00;3.60;;;;;;;;;;110305;1278;22689;-74
2023/07/25 01:28:53;;;;;;;7.40;3.40;;;;;;;;;;110274;1278;22295;-74
2023/07/25 01:31:22;;;;;;;7.30;3.10;;;;;;;;;;110353;1278;22059;-74
2023/07/25 01:33:51;;;;;;;9.20;3.40;;;;;;;;;;110431;1260;22844;-74
2023/07/25 01:43:21;;;;;;;7.60;3.10;;;;;;;;;;103731;1302;545021;-75
2023/07/25 01:45:48;;;;;;;6.30;3.10;;;;;;;;;;106026;1288;22496;-77
2023/07/25 01:48:15;;;;;;;7.50;3.20;;;;;;;;;;106017;1288;25263;-76
2023/07/25 01:50:41;;;;;;;6.30;3.10;;;;;;;;;;106310;1285;23138;-76
2023/07/25 01:53:08;;;;;;;7.20;3.00;;;;;;;;;;106378;1266;22769;-78
2023/07/25 01:55:36;;;;;;;7.30;2.80;;;;;;;;;;106400;1285;25332;-78
2023/07/25 01:58:03;;;;;;;7.10;2.90;;;;;;;;;;104050;1282;3263517;-76
2023/07/25 02:00:29;;;;;;;6.90;2.90;;;;;;;;;;106523;1282;24339;-81
2023/07/25 02:02:56;;;;;;;6.70;2.70;;;;;;;;;;106505;1276;25360;-79
2023/07/25 02:05:23;;;;;;;7.00;3.00;;;;;;;;;;106501;1282;22531;-78
2023/07/25 02:07:50;;;;;;;8.40;2.80;;;;;;;;;;106414;1282;24200;-81
2023/07/25 02:10:17;;;;;;;5.60;2.30;;;;;;;;;;106402;1282;22498;-79
2023/07/25 02:12:43;;;;;;;7.70;2.50;;;;;;;;;;106468;1260;24228;-76
2023/07/25 02:15:10;;;;;;;5.70;2.50;;;;;;;;;;106413;1282;24267;-81
2023/07/25 02:17:37;;;;;;;5.90;2.50;;;;;;;;;;106479;1282;24369;-81
2023/07/25 02:20:04;;;;;;;5.70;2.50;;;;;;;;;;106409;1282;22533;-80
2023/07/25 02:22:31;;;;;;;5.00;2.40;;;;;;;;;;106269;1282;22805;-74
2023/07/25 02:24:58;;;;;;;6.20;2.20;;;;;;;;;;106296;1264;22538;-81
2023/07/25 02:27:25;;;;;;;7.10;2.00;;;;;;;;;;106401;1282;26494;-74
2023/07/25 02:29:51;;;;;;;4.70;2.00;;;;;;;;;;106476;1282;25005;-80
2023/07/25 02:32:18;;;;;;;5.00;2.20;;;;;;;;;;106493;1282;22516;-81
2023/07/25 02:34:45;;;;;;;4.40;2.10;;;;;;;;;;106413;1275;24272;-81
2023/07/25 02:37:11;;;;;;;5.10;1.90;;;;;;;;;;106441;1281;22543;-77
2023/07/25 02:39:38;;;;;;;4.90;1.90;;;;;;;;;;106396;1283;25414;-82
2023/07/25 02:42:05;;;;;;;5.20;2.30;;;;;;;;;;106476;1283;22528;-75
2023/07/25 02:44:32;;;;;;;4.80;2.10;;;;;;;;;;106420;1266;22758;-75
2023/07/25 02:46:58;;;;;;;4.70;2.00;;;;;;;;;;106419;1283;22855;-82
2023/07/25 02:49:25;;;;;;;5.50;2.10;;;;;;;;;;106434;1283;22533;-81
2023/07/25 02:51:52;;;;;;;4.20;1.70;;;;;;;;;;106416;1283;22546;-83
2023/07/25 02:54:21;;;;;;;3.60;1.70;;;;;;;;;;106422;1264;22770;-81
2023/07/25 02:56:48;;;;;;;5.50;2.10;;;;;;;;;;107103;1266;26481;-80
2023/07/25 02:59:23;;;;;;;5.70;1.90;;;;;;;;;;106840;1275;22936;-76
2023/07/25 03:01:56;;;;;;;4.40;2.00;;;;;;;;;;106781;1275;22583;-77
2023/07/25 03:04:23;;;;;;;4.70;2.20;;;;;;;;;;106850;1260;22524;-81
2023/07/25 03:06:49;;;;;;;4.80;2.20;;;;;;;;;;106961;1275;25278;-79
2023/07/25 03:09:19;;;;;;;5.20;2.40;;;;;;;;;;106865;1275;22520;-78
2023/07/25 03:11:46;;;;;;;5.10;1.80;;;;;;;;;;106894;1275;22523;-81
2023/07/25 03:14:15;;;;;;;4.30;1.80;;;;;;;;;;106966;1275;24215;-77
2023/07/25 03:16:42;;;;;;;5.00;1.90;;;;;;;;;;107006;1275;22526;-74
2023/07/25 03:19:09;;;;;;;5.10;1.90;;;;;;;;;;107031;1275;24350;-77
2023/07/25 03:21:36;;;;;;;4.30;1.80;;;;;;;;;;106860;1275;22538;-79
2023/07/25 03:24:03;;;;;;;5.10;1.90;;;;;;;;;;106983;1260;26187;-80
2023/07/25 03:26:30;;;;;;;7.50;2.20;;;;;;;;;;106867;1275;22533;-81
2023/07/25 03:28:56;;;;;;;5.00;2.10;;;;;;;;;;106988;1275;25272;-77
2023/07/25 03:31:23;;;;;;;5.70;2.00;;;;;;;;;;106990;1275;23869;-76
2023/07/25 03:33:50;;;;;;;5.60;2.20;;;;;;;;;;107050;1275;23880;-78
2023/07/25 03:36:16;;;;;;;4.90;2.00;;;;;;;;;;107211;1260;25353;-78
2023/07/25 03:38:43;;;;;;;4.40;2.00;;;;;;;;;;107092;1275;22528;-78
2023/07/25 03:41:10;;;;;;;5.10;1.80;;;;;;;;;;106990;1275;23682;-82
2023/07/25 03:43:36;;;;;;;5.30;1.80;;;;;;;;;;106871;1275;22545;-81
2023/07/25 03:46:03;;;;;;;4.20;1.80;;;;;;;;;;106968;1267;24240;-81
2023/07/25 03:48:31;;;;;;;6.10;2.40;;;;;;;;;;107003;1275;25240;-80
2023/07/25 03:50:58;;;;;;;5.20;2.10;;;;;;;;;;107083;1275;22538;-81
2023/07/25 03:53:25;;;;;;;5.60;2.20;;;;;;;;;;106996;1275;24459;-77
2023/07/25 03:55:52;;;;;;;5.60;2.30;;;;;;;;;;106953;1259;22527;-75
2023/07/25 03:58:25;;;;;;;6.20;2.00;;;;;;;;;;107057;1275;25417;-78
2023/07/25 04:00:51;;;;;;;5.50;2.10;;;;;;;;;;106986;1275;22527;-82
2023/07/25 04:03:18;;;;;;;6.10;1.80;;;;;;;;;;106952;1275;23240;-78
2023/07/25 04:05:45;;;;;;;4.90;1.80;;;;;;;;;;106865;1275;22640;-79
2023/07/25 04:08:12;;;;;;;4.70;1.90;;;;;;;;;;106864;1276;22527;-75
2023/07/25 04:10:38;;;;;;;5.50;2.00;;;;;;;;;;106884;1276;25397;-76
2023/07/25 04:13:05;;;;;;;4.70;1.90;;;;;;;;;;106850;1276;22668;-79
2023/07/25 04:15:32;;;;;;;5.40;2.20;;;;;;;;;;106883;1269;24451;-80
2023/07/25 04:17:59;;;;;;;4.90;2.10;;;;;;;;;;106835;1276;25298;-75
2023/07/25 04:20:26;;;;;;;4.60;1.80;;;;;;;;;;106834;1275;24205;-82
2023/07/25 04:22:55;;;;;;;5.50;2.10;;;;;;;;;;106825;1276;22590;-74
2023/07/25 04:25:23;;;;;;;5.00;2.00;;;;;;;;;;106842;1254;23882;-76
2023/07/25 04:27:49;;;;;;;4.90;1.90;;;;;;;;;;106857;1276;25373;-78
2023/07/25 04:30:16;;;;;;;5.60;1.90;;;;;;;;;;106880;1276;24240;-75
2023/07/25 04:32:43;;;;;;;5.50;2.00;;;;;;;;;;106910;1276;25835;-78
2023/07/25 04:35:10;;;;;;;4.90;1.90;;;;;;;;;;106831;1276;22540;-79
2023/07/25 04:37:37;;;;;;;6.60;2.00;;;;;;;;;;106870;1268;22474;-81
2023/07/25 04:40:07;;;;;;;4.50;1.80;;;;;;;;;;106871;1276;22554;-82
2023/07/25 04:42:34;;;;;;;5.10;1.60;;;;;;;;;;106901;1276;25424;-77
2023/07/25 04:45:02;;;;;;;6.80;1.90;;;;;;;;;;106801;1276;24301;-81
2023/07/25 04:47:28;;;;;;;4.40;1.60;;;;;;;;;;106839;1260;22520;-77
2023/07/25 04:49:55;;;;;;;3.90;1.60;;;;;;;;;;106888;1276;24292;-76
2023/07/25 04:52:22;;;;;;;6.40;2.10;;;;;;;;;;106877;1276;24219;-74
2023/07/25 04:54:49;;;;;;;7.10;2.00;;;;;;;;;;106883;1276;24217;-74
2023/07/25 04:57:16;;;;;;;5.90;2.10;;;;;;;;;;106800;1276;22540;-76
2023/07/25 04:59:42;;;;;;;5.20;2.10;;;;;;;;;;106714;1276;22517;-74
2023/07/25 05:02:10;;;;;;;4.80;2.00;;;;;;;;;;106689;1276;24528;-82
2023/07/25 05:04:36;;;;;;;5.00;1.70;;;;;;;;;;106568;1276;23911;-79
2023/07/25 05:07:03;;;;;;;4.30;1.90;;;;;;;;;;106819;1270;23002;-75
2023/07/25 05:09:30;;;;;;;5.60;2.20;;;;;;;;;;106807;1276;22521;-81
2023/07/25 05:11:57;;;;;;;5.50;2.00;;;;;;;;;;106875;1276;25334;-76
2023/07/25 05:14:24;;;;;;;7.50;2.10;;;;;;;;;;106860;1276;23902;-75
2023/07/25 05:16:50;;;;;;;5.30;2.00;;;;;;;;;;106935;1276;22520;-83
2023/07/25 05:19:17;;;;;;;4.80;2.10;;;;;;;;;;106885;1276;25679;-81
2023/07/25 05:21:44;;;;;;;4.40;1.90;;;;;;;;;;106897;1276;25319;-76
2023/07/25 05:24:11;;;;;;;6.20;2.00;;;;;;;;;;106890;1276;22543;-82
2023/07/25 05:26:37;;;;;;;5.20;2.00;;;;;;;;;;106922;1255;21821;-80
2023/07/25 05:29:04;;;;;;;5.00;1.90;;;;;;;;;;106885;1276;22527;-75
2023/07/25 05:31:31;;;;;;;7.00;2.30;;;;;;;;;;107014;1276;25281;-79
2023/07/25 05:33:58;;;;;;;5.80;2.00;;;;;;;;;;106861;1276;22523;-80
2023/07/25 05:36:25;;;;;;;9.30;2.50;;;;;;;;;;107008;1276;22531;-75
2023/07/25 05:39:15;;;;;;;7.40;2.30;;;;;;;;;;106886;1260;22528;-75
2023/07/25 05:41:44;;;;;;;6.90;2.10;;;;;;;;;;106924;1276;22546;-78
2023/07/25 05:44:14;;;;;;;7.40;2.40;;;;;;;;;;106999;1276;25223;-75
2023/07/25 05:46:41;;;;;;;4.60;2.10;;;;;;;;;;106925;1276;23203;-75
2023/07/25 05:49:08;;;;;;;6.30;2.30;;;;;;;;;;106880;1257;24202;-82
2023/07/25 05:51:34;;;;;;;6.50;2.40;;;;;;;;;;107061;1276;25236;-76
2023/07/25 05:54:01;;;;;;;7.10;2.40;;;;;;;;;;106906;1276;24262;-79
2023/07/25 05:56:28;;;;;;;7.60;2.30;;;;;;;;;;106934;1276;24394;-80
2023/07/25 05:58:58;;;;;;;6.30;2.20;;;;;;;;;;106874;1255;25299;-80
2023/07/25 06:01:27;;;;;;;5.70;2.40;;;;;;;;;;106897;1276;22637;-78
2023/07/25 06:04:15;;;;;;;5.50;2.30;;;;;;;;;;107014;1276;22524;-78
2023/07/25 06:06:42;;;;;;;6.00;2.40;;;;;;;;;;107060;1276;24365;-75
2023/07/25 06:09:09;;;;;;;5.00;2.20;;;;;;;;;;107004;1276;24226;-82
2023/07/25 06:11:46;;;;;;;4.90;2.10;;;;;;;;;;106906;1276;22529;-79
2023/07/25 06:14:12;;;;;;;5.60;2.20;;;;;;;;;;106928;1276;24242;-75
2023/07/25 06:17:00;;;;;;;4.50;2.30;;;;;;;;;;106894;1276;25179;-77
2023/07/25 06:19:49;;;;;;;5.30;2.00;;;;;;;;;;107088;1268;22469;-81
2023/07/25 06:22:16;;;;;;;7.10;2.30;;;;;;;;;;106745;1278;24252;-80
2023/07/25 06:24:43;;;;;;;7.50;2.40;;;;;;;;;;106782;1278;23903;-78
2023/07/25 06:27:30;;;;;;;5.90;2.40;;;;;;;;;;106555;1278;24252;-83
2023/07/25 06:29:57;;;;;;;7.50;2.30;;;;;;;;;;106931;1261;24323;-79
2023/07/25 06:32:24;;;;;;;7.10;2.40;;;;;;;;;;106895;1276;22532;-77
2023/07/25 06:34:51;;;;;;;6.40;2.20;;;;;;;;;;107048;1276;25341;-81
2023/07/25 06:37:18;;;;;;;7.00;2.60;;;;;;;;;;106975;1276;22531;-77
2023/07/25 06:39:44;;;;;;;5.80;2.20;;;;;;;;;;107013;1257;22566;-76
2023/07/25 06:42:11;;;;;;;6.40;2.10;;;;;;;;;;107104;1276;22474;-80
2023/07/25 06:44:38;;;;;;;7.30;2.40;;;;;;;;;;107023;1276;22576;-77
2023/07/25 06:47:05;;;;;;;5.00;2.20;;;;;;;;;;107103;1276;22546;-78
2023/07/25 06:49:31;;;;;;;6.10;1.90;;;;;;;;;;107101;1254;23311;-81
2023/07/25 06:52:00;;;;;;;5.00;2.10;;;;;;;;;;106928;1276;22536;-76
2023/07/25 06:54:26;;;;;;;7.10;2.10;;;;;;;;;;106908;1276;22523;-80
2023/07/25 06:56:53;;;;;;;5.70;2.10;;;;;;;;;;106906;1276;22530;-77
2023/07/25 06:59:20;;;;;;;5.50;2.30;;;;;;;;;;106940;1276;24215;-80
2023/07/25 07:01:46;;;;;;;6.70;2.40;;;;;;;;;;106975;1276;25322;-78
2023/07/25 07:04:13;;;;;;;5.00;2.10;;;;;;;;;;106945;1276;22520;-79
2023/07/25 07:06:40;;;;;;;5.20;2.30;;;;;;;;;;107013;1276;21747;-76
2023/07/25 07:09:07;;;;;;;5.20;2.20;;;;;;;;;;106879;1257;22535;-81
2023/07/25 07:11:33;;;;;;;4.10;1.80;;;;;;;;;;106809;1276;22534;-81
2023/07/25 07:14:03;;;;;;;5.10;2.00;;;;;;;;;;107097;1276;24255;-82
2023/07/25 07:16:31;;;;;;;6.40;2.10;;;;;;;;;;107064;1276;22550;-80
2023/07/25 07:18:57;;;;;;;5.60;2.10;;;;;;;;;;107173;1253;22584;-76
2023/07/25 07:21:24;;;;;;;7.80;2.40;;;;;;;;;;106923;1276;24455;-77
2023/07/25 07:23:51;;;;;;;5.00;2.10;;;;;;;;;;106988;1276;25386;-82
2023/07/25 07:26:18;;;;;;;9.50;2.60;;;;;;;;;;107048;1276;25471;-84
2023/07/25 07:28:45;;;;;;;8.20;2.50;;;;;;;;;;107190;1276;25782;-76
2023/07/25 07:31:12;;;;;;;6.70;2.60;;;;;;;;;;107011;1259;24388;-81
2023/07/25 07:33:39;;;;;;;4.80;2.20;;;;;;;;;;106990;1276;22530;-82
2023/07/25 07:36:06;;;;;;;5.10;2.50;;;;;;;;;;107115;1276;25236;-81
2023/07/25 07:38:33;;;;;;;4.60;2.00;;;;;;;;;;106981;1276;22521;-77
2023/07/25 07:41:00;;;;;;;6.00;2.90;;;;;;;;;;107196;1264;22540;-80
2023/07/25 07:43:26;;;;;;;7.90;2.60;;;;;;;;;;107160;1276;22525;-80
2023/07/25 07:45:53;;;;;;;5.90;2.50;;;;;;;;;;107266;1276;22682;-76
2023/07/25 07:48:22;;;;;;;6.50;2.50;;;;;;;;;;106980;1276;24199;-81
2023/07/25 07:50:49;;;;;;;5.20;2.10;;;;;;;;;;107004;1259;24506;-80
2023/07/25 07:53:20;;;;;;;6.20;2.20;;;;;;;;;;107296;1276;22621;-80
2023/07/25 07:55:46;;;;;;;6.40;2.60;;;;;;;;;;107075;1276;22469;-79
2023/07/25 07:58:13;;;;;;;5.40;2.10;;;;;;;;;;106959;1276;25278;-77
2023/07/25 08:00:43;;;;;;;5.50;2.40;;;;;;;;;;107362;1253;22576;-76
2023/07/25 08:03:09;;;;;;;4.60;2.00;;;;;;;;;;107155;1276;22530;-84
2023/07/25 08:05:36;;;;;;;5.60;2.30;;;;;;;;;;107008;1266;25332;-80
2023/07/25 08:08:04;;;;;;;5.50;2.40;;;;;;;;;;107086;1276;22524;-80
2023/07/25 08:10:31;;;;;;;6.70;2.30;;;;;;;;;;106966;1258;22598;-81
2023/07/25 08:12:57;;;;;;;5.70;2.10;;;;;;;;;;107079;1276;22535;-81
2023/07/25 08:15:24;;;;;;;6.20;2.20;;;;;;;;;;106990;1276;23873;-76
2023/07/25 08:17:51;;;;;;;5.20;2.10;;;;;;;;;;106956;1276;22989;-77
2023/07/25 08:20:18;;;;;;;4.10;1.80;;;;;;;;;;107003;1253;25926;-83
2023/07/25 08:22:45;;;;;;;4.60;1.90;;;;;;;;;;107030;1276;22733;-77
2023/07/25 08:25:12;;;;;;;5.60;2.10;;;;;;;;;;107107;1276;22702;-81
2023/07/25 08:27:39;;;;;;;5.40;2.00;;;;;;;;;;106997;1276;25344;-80
2023/07/25 08:30:06;;;;;;;3.80;2.00;;;;;;;;;;106979;1275;22544;-78
2023/07/25 08:32:32;;;;;;;5.00;2.10;;;;;;;;;;106901;1275;25342;-76
2023/07/25 08:34:59;;;;;;;3.80;1.80;;;;;;;;;;107008;1276;22525;-84
2023/07/25 08:37:28;;;;;;;5.30;2.00;;;;;;;;;;107003;1276;24317;-80
2023/07/25 08:39:55;;;;;;;4.60;2.00;;;;;;;;;;107119;1276;22540;-79
2023/07/25 08:42:25;;;;;;;4.40;2.00;;;;;;;;;;107059;1257;22523;-77
2023/07/25 08:44:53;;;;;;;4.60;2.10;;;;;;;;;;106919;1276;22648;-80
2023/07/25 08:47:22;;;;;;;4.40;2.10;;;;;;;;;;107065;1276;22538;-84
2023/07/25 08:49:57;;;;;;;4.50;1.90;;;;;;;;;;106958;1276;24190;-78
2023/07/25 08:52:28;;;;;;;5.30;2.10;;;;;;;;;;107052;1259;22577;-82
2023/07/25 08:54:56;;;;;;;6.60;2.20;;;;;;;;;;107256;1276;22528;-78
2023/07/25 08:57:23;;;;;;;4.40;1.90;;;;;;;;;;106938;1273;24685;-81
2023/07/25 08:59:50;;;;;;;5.50;2.10;;;;;;;;;;106992;1276;24185;-76
2023/07/25 09:02:17;;;;;;;5.70;1.90;;;;;;;;;;107035;1261;22528;-79
2023/07/25 09:04:47;;;;;;;4.30;2.10;;;;;;;;;;107009;1276;22542;-79
2023/07/25 09:07:14;;;;;;;5.80;2.50;;;;;;;;;;107011;1276;25333;-77
2023/07/25 09:09:40;;;;;;;4.90;2.00;;;;;;;;;;106999;1276;25312;-81
2023/07/25 09:12:08;;;;;;;3.90;1.80;;;;;;;;;;107096;1259;22569;-79
2023/07/25 09:14:39;;;;;;;5.60;2.20;;;;;;;;;;107025;1276;26648;-78
2023/07/25 09:17:08;;;;;;;4.20;2.10;;;;;;;;;;107053;1276;24243;-82
2023/07/25 09:19:35;;;;;;;4.40;2.00;;;;;;;;;;107115;1276;24412;-78
2023/07/25 09:22:02;;;;;;;4.50;1.70;;;;;;;;;;107013;1267;22551;-80
2023/07/25 09:24:55;;;;;;;4.40;1.90;;;;;;;;;;107103;1270;24228;-81
2023/07/25 09:27:21;;;;;;;4.80;2.10;;;;;;;;;;106945;1276;22527;-82
2023/07/25 09:29:49;;;;;;;4.80;1.80;;;;;;;;;;107089;1276;25840;-81
2023/07/25 09:32:24;;;;;;;6.20;2.10;;;;;;;;;;107143;1254;22523;-79
2023/07/25 09:34:58;;;;;;;4.80;2.00;;;;;;;;;;107152;1276;22632;-83
2023/07/25 09:37:26;;;;;;;5.20;1.90;;;;;;;;;;107045;1276;25466;-76
2023/07/25 09:39:53;;;;;;;6.20;2.30;;;;;;;;;;107040;1276;22528;-82
2023/07/25 09:42:20;;;;;;;4.60;2.00;;;;;;;;;;106893;1276;25493;-80
2023/07/25 09:44:47;;;;;;;7.20;1.90;;;;;;;;;;107151;1276;24903;-77
2023/07/25 09:47:19;;;;;;;6.00;2.40;;;;;;;;;;106964;1256;22598;-78
2023/07/25 09:49:49;;;;;;;4.90;2.20;;;;;;;;;;107190;1276;22786;-79
2023/07/25 09:52:16;;;;;;;4.00;1.70;;;;;;;;;;107124;1257;24256;-83
2023/07/25 09:54:46;;;;;;;5.10;1.90;;;;;;;;;;107068;1276;22561;-81
2023/07/25 09:57:13;;;;;;;4.40;1.90;;;;;;;;;;106924;1276;22532;-83
2023/07/25 09:59:40;;;;;;;5.60;2.10;;;;;;;;;;106947;1276;24302;-83
2023/07/25 10:02:08;;;;;;;4.40;1.70;;;;;;;;;;107097;1254;22524;-80
2023/07/25 10:04:38;;;;;;;5.20;1.70;;;;;;;;;;106481;1276;25226;-77
2023/07/25 10:07:05;;;;;;;5.30;2.20;;;;;;;;;;106946;1276;22602;-77
2023/07/25 10:09:33;;;;;;;6.30;2.10;;;;;;;;;;107065;1253;22536;-84
2023/07/25 10:12:02;;;;;;;5.20;2.20;;;;;;;;;;106892;1276;24053;-77
2023/07/25 10:14:29;;;;;;;7.80;1.80;;;;;;;;;;106934;1260;22618;-81
2023/07/25 10:16:57;;;;;;;4.90;1.70;;;;;;;;;;107079;1276;22719;-79
2023/07/25 10:19:24;;;;;;;3.70;1.80;;;;;;;;;;107131;1276;24190;-80
2023/07/25 10:21:52;;;;;;;4.70;1.90;;;;;;;;;;106930;1276;25523;-79
2023/07/25 10:24:19;;;;;;;3.90;1.90;;;;;;;;;;106934;1259;21700;-82
2023/07/25 10:26:53;;;;;;;4.60;1.70;;;;;;;;;;106969;1276;24186;-80
2023/07/25 10:29:40;;;;;;;4.80;1.80;;;;;;;;;;107105;1276;22530;-82
2023/07/25 10:32:07;;;;;;;4.00;1.60;;;;;;;;;;106958;1271;24246;-79
2023/07/25 10:34:45;;;;;;;3.20;1.60;;;;;;;;;;106915;1276;23908;-77
2023/07/25 10:37:28;;;;;;;3.70;1.70;;;;;;;;;;106934;1276;23902;-78
2023/07/25 10:40:03;;;;;;;3.50;1.60;;;;;;;;;;106969;1276;25363;-80
2023/07/25 10:42:49;;;;;;;3.90;1.30;;;;;;;;;;107085;1276;24249;-84
2023/07/25 10:45:39;;;;;;;4.80;1.50;;;;;;;;;;107090;1259;22544;-76
2023/07/25 10:48:25;;;;;;;5.30;1.80;;;;;;;;;;106928;1276;22524;-79
2023/07/25 10:50:53;;;;;;;4.10;1.80;;;;;;;;;;107064;1276;25517;-84
2023/07/25 10:53:21;;;;;;;4.30;1.50;;;;;;;;;;107103;1253;22593;-82
2023/07/25 10:56:03;;;;;;;5.50;1.70;;;;;;;;;;106968;1276;22544;-82
2023/07/25 10:58:31;;;;;;;3.80;1.60;;;;;;;;;;107091;1276;25321;-80
2023/07/25 11:00:58;;;;;;;5.40;1.90;;;;;;;;;;107081;1276;22535;-80
2023/07/25 11:03:27;;;;;;;4.80;1.70;;;;;;;;;;107108;1275;22521;-79
2023/07/25 11:06:06;;;;;;;5.70;1.80;;;;;;;;;;106962;1257;22519;-85
2023/07/25 11:08:40;;;;;;;4.70;1.90;;;;;;;;;;107088;1276;22529;-77
2023/07/25 11:11:08;;;;;;;5.50;1.70;;;;;;;;;;107105;1276;25496;-81
2023/07/25 11:13:38;;;;;;;3.40;1.60;;;;;;;;;;106931;1275;26668;-79
2023/07/25 11:16:06;;;;;;;4.50;2.00;;;;;;;;;;106871;1276;25246;-77
2023/07/25 11:18:36;;;;;;;4.00;1.80;;;;;;;;;;107160;1276;24297;-77
2023/07/25 11:21:09;;;;;;;4.00;1.80;;;;;;;;;;106921;1276;24193;-84
2023/07/25 11:23:36;;;;;;;3.90;1.80;;;;;;;;;;106895;1276;25606;-77
2023/07/25 11:26:07;;;;;;;3.40;1.70;;;;;;;;;;106930;1258;24349;-88
2023/07/25 11:28:34;;;;;;;5.70;2.30;;;;;;;;;;106924;1276;22536;-76
2023/07/25 11:31:00;;;;;;;5.20;2.20;;;;;;;;;;107038;1276;24218;-80
2023/07/25 11:33:35;;;;;;;5.60;2.00;;;;;;;;;;107114;1276;24173;-80
2023/07/25 11:36:02;;;;;;;5.80;2.10;;;;;;;;;;106880;1257;22530;-84
2023/07/25 11:38:28;;;;;;;4.90;2.00;;;;;;;;;;106953;1276;25342;-81
2023/07/25 11:40:55;;;;;;;8.60;2.50;;;;;;;;;;106941;1273;24186;-77
2023/07/25 11:43:22;;;;;;;7.00;2.10;;;;;;;;;;106929;1276;24360;-81
2023/07/25 11:45:49;;;;;;;6.10;1.90;;;;;;;;;;106938;1271;24360;-82
2023/07/25 11:48:18;;;;;;;6.00;2.00;;;;;;;;;;107086;1276;24225;-77
2023/07/25 11:50:48;;;;;;;4.30;2.20;;;;;;;;;;107016;1276;22520;-78
2023/07/25 11:53:16;;;;;;;5.60;2.10;;;;;;;;;;106955;1276;23805;-77
2023/07/25 11:55:44;;;;;;;6.10;2.30;;;;;;;;;;107073;1253;22736;-84
2023/07/25 11:58:15;;;;;;;5.20;2.00;;;;;;;;;;107050;1276;24262;-77
2023/07/25 12:00:42;;;;;;;4.80;2.20;;;;;;;;;;106976;1276;22528;-82
2023/07/25 12:03:19;;;;;;;5.00;2.10;;;;;;;;;;106904;1276;22532;-81
2023/07/25 12:05:53;;;;;;;5.40;2.20;;;;;;;;;;107070;1276;24224;-77
2023/07/25 12:08:33;;;;;;;6.00;2.30;;;;;;;;;;107021;1276;23927;-84
2023/07/25 12:11:04;;;;;;;5.10;2.10;;;;;;;;;;107105;1276;24246;-83
2023/07/25 12:13:31;;;;;;;6.30;1.70;;;;;;;;;;107091;1276;24189;-79
2023/07/25 12:16:00;;;;;;;5.20;2.00;;;;;;;;;;106847;1257;22524;-81
2023/07/25 12:18:30;;;;;;;5.50;2.00;;;;;;;;;;107058;1276;22533;-79
2023/07/25 12:20:58;;;;;;;4.50;2.00;;;;;;;;;;106967;1276;22652;-81
2023/07/25 12:23:28;;;;;;;6.10;2.10;;;;;;;;;;107014;1276;22654;-77
2023/07/25 12:25:58;;;;;;;7.80;2.90;;;;;;;;;;106920;1259;24833;-81
2023/07/25 12:28:37;;;;;;;5.80;2.20;;;;;;;;;;106926;1276;22797;-77
2023/07/25 12:31:04;;;;;;;5.70;2.00;;;;;;;;;;106944;1271;25336;-77
2023/07/25 12:33:32;;;;;;;5.20;1.80;;;;;;;;;;106902;1276;25571;-78
2023/07/25 12:35:58;;;;;;;5.90;2.20;;;;;;;;;;107054;1274;23131;-84
2023/07/25 12:38:39;;;;;;;5.00;1.80;;;;;;;;;;107008;1276;22536;-77
2023/07/25 12:41:06;;;;;;;5.30;2.00;;;;;;;;;;106923;1276;26495;-81
2023/07/25 12:43:32;;;;;;;4.70;2.10;;;;;;;;;;106911;1276;25350;-80
2023/07/25 12:46:00;;;;;;;5.10;2.10;;;;;;;;;;106922;1274;24273;-79
2023/07/25 12:48:27;;;;;;;4.60;1.90;;;;;;;;;;107022;1276;22527;-80
2023/07/25 12:50:53;;;;;;;8.00;2.40;;;;;;;;;;107026;1276;22522;-83
2023/07/25 12:53:20;;;;;;;4.30;2.20;;;;;;;;;;106967;1276;22530;-81
2023/07/25 12:55:48;;;;;;;6.00;2.40;;;;;;;;;;107110;1275;22506;-82
2023/07/25 12:58:15;;;;;;;5.70;1.80;;;;;;;;;;106923;1276;22758;-79
2023/07/25 13:00:42;;;;;;;6.60;2.00;;;;;;;;;;107053;1276;24217;-76
2023/07/25 13:03:09;;;;;;;5.00;2.10;;;;;;;;;;107019;1276;23685;-83
2023/07/25 13:05:36;;;;;;;6.70;2.00;;;;;;;;;;107079;1272;24884;-78
2023/07/25 13:08:04;;;;;;;4.90;2.00;;;;;;;;;;107122;1257;25826;-81
2023/07/25 13:10:31;;;;;;;7.60;2.20;;;;;;;;;;107128;1276;25281;-76
2023/07/25 13:12:57;;;;;;;4.90;2.00;;;;;;;;;;107080;1276;22549;-80
2023/07/25 13:15:26;;;;;;;6.40;2.30;;;;;;;;;;107129;1276;22520;-80
2023/07/25 13:17:56;;;;;;;5.30;2.10;;;;;;;;;;107020;1257;25216;-79
2023/07/25 13:20:28;;;;;;;4.00;2.10;;;;;;;;;;107044;1275;22514;-82
2023/07/25 13:22:55;;;;;;;5.90;2.20;;;;;;;;;;107161;1276;24198;-80
2023/07/25 13:25:22;;;;;;;5.00;2.30;;;;;;;;;;107040;1275;24246;-83
2023/07/25 13:27:52;;;;;;;5.70;2.00;;;;;;;;;;106990;1259;24378;-77
2023/07/25 13:30:21;;;;;;;5.50;2.00;;;;;;;;;;107097;1276;22523;-83
2023/07/25 13:32:53;;;;;;;5.30;2.10;;;;;;;;;;107199;1276;24171;-77
2023/07/25 13:35:20;;;;;;;8.50;2.40;;;;;;;;;;107075;1276;24356;-81
2023/07/25 13:37:52;;;;;;;8.30;1.90;;;;;;;;;;107031;1257;25360;-76
2023/07/25 13:40:29;;;;;;;4.30;1.90;;;;;;;;;;107031;1276;22521;-84
2023/07/25 13:42:59;;;;;;;6.20;1.80;;;;;;;;;;106958;1276;22534;-81
2023/07/25 13:45:42;;;;;;;4.00;1.90;;;;;;;;;;106981;1276;25215;-85
2023/07/25 13:48:12;;;;;;;5.30;1.90;;;;;;;;;;107066;1276;25354;-82
2023/07/25 13:50:52;;;;;;;4.60;1.70;;;;;;;;;;107027;1276;24276;-79
2023/07/25 13:53:22;;;;;;;4.50;1.80;;;;;;;;;;107099;1276;25442;-83
2023/07/25 13:55:56;;;;;;;4.50;2.00;;;;;;;;;;103549;1276;5081951;-77
2023/07/25 13:58:24;;;;;;;5.20;1.80;;;;;;;;;;107147;1259;23879;-85
2023/07/25 14:00:53;;;;;;;5.10;1.70;;;;;;;;;;106987;1276;26591;-82
2023/07/25 14:03:23;;;;;;;5.10;1.40;;;;;;;;;;107081;1276;22527;-82
2023/07/25 14:05:50;;;;;;;4.40;2.00;;;;;;;;;;110500;1272;22392;-79
2023/07/25 14:08:17;;;;;;;6.40;1.70;;;;;;;;;;110415;1256;22129;-77
2023/07/25 14:10:44;;;;;;;3.70;1.70;;;;;;;;;;110619;1268;22109;-77
2023/07/25 14:13:11;;;;;;;12.20;2.20;;;;;;;;;;110613;1276;22162;-79
2023/07/25 14:15:37;;;;;;;5.30;1.90;;;;;;;;;;110477;1276;22126;-79
2023/07/25 14:18:07;;;;;;;6.20;2.00;;;;;;;;;;110541;1256;22164;-79
2023/07/25 14:20:38;;;;;;;5.40;1.80;;;;;;;;;;110589;1276;22787;-80
2023/07/25 14:23:05;;;;;;;5.30;1.60;;;;;;;;;;110424;1266;22122;-78
2023/07/25 14:25:32;;;;;;;5.70;2.10;;;;;;;;;;110600;1268;22901;-77
2023/07/25 14:27:59;;;;;;;6.50;2.10;;;;;;;;;;110507;1256;22140;-77
2023/07/25 14:30:25;;;;;;;4.40;1.90;;;;;;;;;;110445;1276;22390;-76
2023/07/25 14:32:52;;;;;;;7.60;1.80;;;;;;;;;;110461;1276;22788;-79
2023/07/25 14:35:22;;;;;;;10.00;2.30;;;;;;;;;;110414;1276;22153;-78
2023/07/25 14:37:49;;;;;;;5.90;1.70;;;;;;;;;;110308;1253;22981;-78
2023/07/25 14:40:16;;;;;;;4.90;1.70;;;;;;;;;;110198;1276;22138;-77
2023/07/25 14:42:43;;;;;;;5.20;2.00;;;;;;;;;;110472;1276;22319;-77
2023/07/25 14:45:10;;;;;;;3.20;1.40;;;;;;;;;;110428;1276;22959;-77